createdAt,value
2017-10-13T00:00:13.865Z,101932.92
2017-10-13T00:02:42.572Z,101927.70
2017-10-13T00:05:12.018Z,101927.89
2017-10-13T00:07:41.598Z,101937.47
2017-10-13T00:10:12.366Z,101932.78
2017-10-13T00:12:41.601Z,101941.52
2017-10-13T00:15:11.012Z,101939.95
2017-10-13T00:17:40.071Z,101941.27
2017-10-13T00:20:09.330Z,101936.84
2017-10-13T00:22:37.698Z,101950.55
2017-10-13T00:25:06.098Z,101962.31
2017-10-13T00:27:34.490Z,101957.73
2017-10-13T00:30:03.581Z,101957.49
2017-10-13T00:32:31.956Z,101949.66
2017-10-13T00:35:01.238Z,101960.28
2017-10-13T00:37:29.616Z,101959.79
2017-10-13T00:39:59.487Z,101965.97
2017-10-13T00:42:28.732Z,101967.30
2017-10-13T00:44:57.103Z,101968.41
2017-10-13T00:47:25.464Z,101976.50
2017-10-13T00:49:53.922Z,101975.61
2017-10-13T00:52:22.293Z,101969.75
2017-10-13T00:54:51.431Z,101968.15
2017-10-13T00:57:20.194Z,101975.55
2017-10-13T00:59:51.008Z,101969.08
2017-10-13T01:02:19.983Z,101970.69
2017-10-13T01:04:48.601Z,101971.41
2017-10-13T01:07:18.254Z,101981.37
2017-10-13T01:09:47.246Z,101976.38
2017-10-13T01:12:15.639Z,101976.58
2017-10-13T01:14:44.198Z,101970.75
2017-10-13T01:17:13.395Z,101977.69
2017-10-13T01:19:43.112Z,101978.52
2017-10-13T01:22:11.488Z,101981.93
2017-10-13T01:24:40.098Z,101987.62
2017-10-13T01:27:08.505Z,101983.41
2017-10-13T01:29:38.501Z,101979.73
2017-10-13T01:32:06.879Z,101987.09
2017-10-13T01:34:36.206Z,101988.84
2017-10-13T01:37:04.608Z,101985.63
2017-10-13T01:39:33.761Z,101992.29
2017-10-13T01:42:03.462Z,101995.00
2017-10-13T01:44:31.845Z,101988.03
2017-10-13T01:47:00.218Z,101987.45
2017-10-13T01:49:28.674Z,101989.11
2017-10-13T01:51:57.038Z,101991.13
2017-10-13T01:54:25.418Z,101995.64
2017-10-13T01:56:54.388Z,101992.44
2017-10-13T01:59:22.772Z,101990.06
2017-10-13T02:01:52.940Z,101990.98
2017-10-13T02:04:21.416Z,101992.93
2017-10-13T02:06:51.001Z,101989.39
2017-10-13T02:09:19.379Z,101987.70
2017-10-13T02:11:48.610Z,101988.47
2017-10-13T02:14:17.771Z,101996.95
2017-10-13T02:16:46.234Z,101999.01
2017-10-13T02:19:14.807Z,101993.18
2017-10-13T02:21:43.737Z,101994.05
2017-10-13T02:24:13.374Z,101997.77
2017-10-13T02:26:41.968Z,101994.19
2017-10-13T02:29:10.430Z,101990.86
2017-10-13T02:31:39.457Z,101985.27
2017-10-13T02:34:08.955Z,101981.12
2017-10-13T02:36:37.330Z,101989.70
2017-10-13T02:39:05.729Z,101993.92
2017-10-13T02:41:34.965Z,101993.57
2017-10-13T02:44:04.108Z,101996.98
2017-10-13T02:46:32.478Z,102007.19
2017-10-13T02:49:00.955Z,102011.20
2017-10-13T02:51:30.122Z,102013.61
2017-10-13T02:53:59.943Z,102020.62
2017-10-13T02:56:29.088Z,102024.92
2017-10-13T02:58:57.460Z,102026.53
2017-10-13T03:01:28.110Z,102025.49
2017-10-13T03:03:56.515Z,102034.27
2017-10-13T03:06:25.712Z,102036.98
2017-10-13T03:08:54.595Z,102038.53
2017-10-13T03:11:23.524Z,102034.98
2017-10-13T03:13:51.889Z,102038.47
2017-10-13T03:16:20.273Z,102036.98
2017-10-13T03:18:50.016Z,102028.14
2017-10-13T03:21:18.627Z,102031.11
2017-10-13T03:23:47.018Z,102041.25
2017-10-13T03:26:15.460Z,102034.42
2017-10-13T03:28:43.822Z,102035.14
2017-10-13T03:31:12.226Z,102033.30
2017-10-13T03:33:40.964Z,102041.21
2017-10-13T03:36:09.324Z,102037.13
2017-10-13T03:38:37.698Z,102036.28
2017-10-13T03:41:06.095Z,102032.09
2017-10-13T03:43:35.866Z,102034.23
2017-10-13T03:46:04.253Z,102037.60
2017-10-13T03:48:32.661Z,102042.17
2017-10-13T03:51:04.063Z,102038.89
2017-10-13T03:53:32.935Z,102035.50
2017-10-13T03:56:02.438Z,102036.59
2017-10-13T03:58:30.839Z,102027.66
2017-10-13T04:01:00.463Z,102024.16
2017-10-13T04:03:30.157Z,102029.66
2017-10-13T04:05:58.515Z,102029.43
2017-10-13T04:08:27.897Z,102032.28
2017-10-13T04:10:57.086Z,102032.14
2017-10-13T04:13:26.228Z,102029.63
2017-10-13T04:15:54.601Z,102037.74
2017-10-13T04:18:24.367Z,102033.03
2017-10-13T04:20:53.817Z,102040.80
2017-10-13T04:23:23.053Z,102036.97
2017-10-13T04:25:53.034Z,102036.25
2017-10-13T04:28:21.871Z,102044.21
2017-10-13T04:30:51.044Z,102043.59
2017-10-13T04:33:19.459Z,102039.22
2017-10-13T04:35:48.566Z,102040.29
2017-10-13T04:38:17.374Z,102038.95
2017-10-13T04:40:45.830Z,102036.17
2017-10-13T04:43:15.704Z,102045.17
2017-10-13T04:45:46.233Z,102037.03
2017-10-13T04:48:16.127Z,102042.67
2017-10-13T04:50:44.494Z,102039.03
2017-10-13T04:53:12.849Z,102047.68
2017-10-13T04:55:43.401Z,102057.25
2017-10-13T04:58:15.813Z,102046.60
2017-10-13T05:00:45.221Z,102046.73
2017-10-13T05:03:14.543Z,102049.60
2017-10-13T05:05:42.957Z,102053.95
2017-10-13T05:08:12.539Z,102056.03
2017-10-13T05:10:40.908Z,102062.31
2017-10-13T05:13:09.849Z,102062.02
2017-10-13T05:15:38.215Z,102057.18
2017-10-13T05:18:07.320Z,102059.44
2017-10-13T05:20:35.715Z,102061.44
2017-10-13T05:23:04.261Z,102059.88
2017-10-13T05:25:32.619Z,102065.28
2017-10-13T05:28:00.971Z,102063.30
2017-10-13T05:30:29.577Z,102068.70
2017-10-13T05:32:58.705Z,102066.88
2017-10-13T05:35:28.462Z,102071.73
2017-10-13T05:37:57.950Z,102080.28
2017-10-13T05:40:26.268Z,102079.55
2017-10-13T05:42:54.606Z,102075.52
2017-10-13T05:45:23.819Z,102082.48
2017-10-13T05:47:52.729Z,102081.95
2017-10-13T05:50:21.064Z,102080.73
2017-10-13T05:52:49.467Z,102093.95
2017-10-13T05:55:18.589Z,102087.73
2017-10-13T05:57:46.944Z,102090.17
2017-10-13T06:00:15.601Z,102089.33
2017-10-13T06:02:43.958Z,102090.55
2017-10-13T06:05:12.310Z,102084.05
2017-10-13T06:07:40.866Z,102092.82
2017-10-13T06:10:10.274Z,102086.06
2017-10-13T06:12:38.616Z,102087.87
2017-10-13T06:15:06.996Z,102089.26
2017-10-13T06:17:36.168Z,102089.06
2017-10-13T06:20:05.346Z,102093.63
2017-10-13T06:22:33.702Z,102094.87
2017-10-13T06:25:03.505Z,102087.78
2017-10-13T06:27:33.550Z,102093.12
2017-10-13T06:30:03.028Z,102094.70
2017-10-13T06:32:32.722Z,102100.29
2017-10-13T06:35:01.070Z,102107.14
2017-10-13T06:37:30.249Z,102106.00
2017-10-13T06:39:59.818Z,102103.31
2017-10-13T06:42:28.194Z,102095.78
2017-10-13T06:44:56.821Z,102099.16
2017-10-13T06:47:25.878Z,102101.13
2017-10-13T06:49:54.245Z,102099.97
2017-10-13T06:52:22.703Z,102095.67
2017-10-13T06:54:51.034Z,102098.30
2017-10-13T06:57:19.375Z,102112.55
2017-10-13T06:59:49.055Z,102095.72
2017-10-13T07:02:17.415Z,102099.09
2017-10-13T07:04:46.346Z,102104.41
2017-10-13T07:07:14.731Z,102109.52
2017-10-13T07:09:44.092Z,102103.19
2017-10-13T07:12:14.998Z,102106.23
2017-10-13T07:14:45.532Z,102108.41
2017-10-13T07:17:14.440Z,102112.83
2017-10-13T07:19:43.485Z,102115.22
2017-10-13T07:22:13.971Z,102121.22
2017-10-13T07:24:43.993Z,102114.83
2017-10-13T07:27:13.566Z,102122.74
2017-10-13T07:29:42.512Z,102114.59
2017-10-13T07:32:10.873Z,102107.59
2017-10-13T07:34:40.655Z,102114.33
2017-10-13T07:37:09.786Z,102116.47
2017-10-13T07:39:38.537Z,102110.97
2017-10-13T07:42:06.918Z,102115.77
2017-10-13T07:44:35.274Z,102122.89
2017-10-13T07:47:06.466Z,102117.98
2017-10-13T07:49:35.521Z,102126.42
2017-10-13T07:52:06.314Z,102117.45
2017-10-13T07:54:36.379Z,102116.58
2017-10-13T07:57:06.016Z,102122.13
2017-10-13T07:59:35.776Z,102116.70
2017-10-13T08:02:05.438Z,102116.58
2017-10-13T08:04:34.229Z,102127.02
2017-10-13T08:07:02.603Z,102134.23
2017-10-13T08:09:30.941Z,102139.97
2017-10-13T08:12:01.122Z,102136.78
2017-10-13T08:14:30.494Z,102144.67
2017-10-13T08:16:59.735Z,102139.03
2017-10-13T08:19:29.020Z,102136.55
2017-10-13T08:21:58.090Z,102134.14
2017-10-13T08:24:26.773Z,102139.02
2017-10-13T08:26:55.335Z,102138.19
2017-10-13T08:29:25.730Z,102138.78
2017-10-13T08:31:54.290Z,102141.77
2017-10-13T08:34:23.105Z,102145.70
2017-10-13T08:36:52.234Z,102144.50
2017-10-13T08:39:20.590Z,102143.38
2017-10-13T08:41:49.305Z,102144.16
2017-10-13T08:44:17.650Z,102145.35
2017-10-13T08:46:46.783Z,102149.55
2017-10-13T08:49:16.691Z,102145.36
2017-10-13T08:51:45.791Z,102143.31
2017-10-13T08:54:14.955Z,102144.77
2017-10-13T08:56:43.340Z,102153.56
2017-10-13T08:59:12.327Z,102149.73
2017-10-13T09:01:41.467Z,102146.38
2017-10-13T09:04:10.380Z,102137.15
2017-10-13T09:06:39.739Z,102144.56
2017-10-13T09:09:08.222Z,102136.33
2017-10-13T09:11:37.983Z,102150.22
2017-10-13T09:14:06.351Z,102142.89
2017-10-13T09:16:34.682Z,102148.55
2017-10-13T09:19:03.487Z,102146.54
2017-10-13T09:21:32.737Z,102143.58
2017-10-13T09:24:01.171Z,102144.28
2017-10-13T09:26:31.450Z,102147.56
2017-10-13T09:29:01.151Z,102146.36
2017-10-13T09:31:29.504Z,102145.39
2017-10-13T09:33:59.448Z,102142.21
2017-10-13T09:36:28.023Z,102141.02
2017-10-13T09:38:56.389Z,102140.27
2017-10-13T09:41:24.861Z,102145.44
2017-10-13T09:43:53.552Z,102147.40
2017-10-13T09:46:22.824Z,102145.60
2017-10-13T09:48:52.142Z,102149.48
2017-10-13T09:51:21.713Z,102155.64
2017-10-13T09:53:50.124Z,102153.78
2017-10-13T09:56:18.550Z,102152.49
2017-10-13T09:58:46.911Z,102158.30
2017-10-13T10:01:15.377Z,102163.44
2017-10-13T10:03:44.480Z,102159.70
2017-10-13T10:06:12.875Z,102161.38
2017-10-13T10:08:41.227Z,102159.52
2017-10-13T10:11:11.223Z,102153.24
2017-10-13T10:13:41.138Z,102152.00
2017-10-13T10:16:10.694Z,102154.70
2017-10-13T10:18:39.121Z,102160.56
2017-10-13T10:21:07.463Z,102156.97
2017-10-13T10:23:35.814Z,102155.82
2017-10-13T10:26:04.978Z,102161.78
2017-10-13T10:28:34.315Z,102166.56
2017-10-13T10:31:02.921Z,102158.30
2017-10-13T10:33:31.461Z,102152.99
2017-10-13T10:36:00.304Z,102153.24
2017-10-13T10:38:29.206Z,102152.31
2017-10-13T10:40:58.370Z,102150.89
2017-10-13T10:43:26.693Z,102141.73
2017-10-13T10:45:55.892Z,102137.47
2017-10-13T10:48:24.571Z,102139.53
2017-10-13T10:50:53.908Z,102139.45
2017-10-13T10:53:22.249Z,102142.39
2017-10-13T10:55:53.319Z,102138.80
2017-10-13T10:58:21.957Z,102139.06
2017-10-13T11:00:50.304Z,102138.83
2017-10-13T11:03:18.704Z,102131.37
2017-10-13T11:05:47.660Z,102124.58
2017-10-13T11:08:16.042Z,102121.56
2017-10-13T11:10:46.130Z,102124.20
2017-10-13T11:13:14.473Z,102125.42
2017-10-13T11:15:43.358Z,102111.00
2017-10-13T11:18:11.987Z,102120.46
2017-10-13T11:20:41.610Z,102126.17
2017-10-13T11:23:09.962Z,102121.56
2017-10-13T11:25:38.373Z,102126.48
2017-10-13T11:28:08.314Z,102129.36
2017-10-13T11:30:36.675Z,102136.50
2017-10-13T11:33:06.084Z,102135.45
2017-10-13T11:35:34.943Z,102124.84
2017-10-13T11:38:03.576Z,102136.18
2017-10-13T11:40:33.650Z,102127.02
2017-10-13T11:43:03.823Z,102133.77
2017-10-13T11:45:32.670Z,102122.22
2017-10-13T11:48:01.824Z,102136.31
2017-10-13T11:50:30.628Z,102130.08
2017-10-13T11:53:00.307Z,102132.16
2017-10-13T11:55:28.729Z,102138.29
2017-10-13T11:57:57.775Z,102141.34
2017-10-13T12:00:26.977Z,102139.00
2017-10-13T12:02:57.598Z,102138.89
2017-10-13T12:05:26.389Z,102139.11
2017-10-13T12:07:55.422Z,102139.41
2017-10-13T12:10:23.795Z,102138.02
2017-10-13T12:12:52.848Z,102138.67
2017-10-13T12:15:21.361Z,102136.39
2017-10-13T12:17:52.715Z,102129.23
2017-10-13T12:20:22.799Z,102129.12
2017-10-13T12:22:52.007Z,102137.52
2017-10-13T12:25:20.935Z,102134.27
2017-10-13T12:27:49.854Z,102130.98
2017-10-13T12:30:18.870Z,102126.90
2017-10-13T12:32:47.262Z,102131.50
2017-10-13T12:35:15.600Z,102137.60
2017-10-13T12:37:43.977Z,102124.34
2017-10-13T12:40:13.211Z,102125.60
2017-10-13T12:42:41.939Z,102133.01
2017-10-13T12:45:11.389Z,102129.78
2017-10-13T12:47:41.179Z,102115.23
2017-10-13T12:50:09.543Z,102123.55
2017-10-13T12:52:38.002Z,102114.54
2017-10-13T12:55:07.712Z,102126.25
2017-10-13T12:57:39.208Z,102124.23
2017-10-13T13:00:08.915Z,102122.59
2017-10-13T13:02:39.263Z,102119.62
2017-10-13T13:05:07.714Z,102127.75
2017-10-13T13:07:36.073Z,102127.03
2017-10-13T13:10:04.522Z,102129.89
2017-10-13T13:12:34.367Z,102130.33
2017-10-13T13:15:02.722Z,102129.88
2017-10-13T13:17:31.143Z,102124.11
2017-10-13T13:20:00.997Z,102128.66
2017-10-13T13:22:30.937Z,102126.66
2017-10-13T13:25:00.527Z,102118.36
2017-10-13T13:27:28.895Z,102127.98
2017-10-13T13:29:58.207Z,102126.38
2017-10-13T13:32:28.199Z,102116.61
2017-10-13T13:34:56.655Z,102116.00
2017-10-13T13:37:25.035Z,102127.63
2017-10-13T13:39:53.425Z,102126.50
2017-10-13T13:42:22.218Z,102125.36
2017-10-13T13:44:50.578Z,102121.34
2017-10-13T13:47:20.293Z,102122.28
2017-10-13T13:49:51.069Z,102113.61
2017-10-13T13:52:20.595Z,102113.64
2017-10-13T13:54:48.954Z,102114.41
2017-10-13T13:57:19.367Z,102109.47
2017-10-13T13:59:47.740Z,102105.90
2017-10-13T14:02:16.103Z,102105.81
2017-10-13T14:04:44.770Z,102107.55
2017-10-13T14:07:13.388Z,102098.25
2017-10-13T14:09:43.368Z,102105.64
2017-10-13T14:12:12.621Z,102103.02
2017-10-13T14:14:41.234Z,102109.52
2017-10-13T14:17:09.599Z,102104.17
2017-10-13T14:19:38.738Z,102101.37
2017-10-13T14:22:07.102Z,102115.48
2017-10-13T14:24:36.718Z,102106.98
2017-10-13T14:27:05.383Z,102110.23
2017-10-13T14:29:36.245Z,102109.94
2017-10-13T14:32:05.384Z,102109.19
2017-10-13T14:34:33.743Z,102094.20
2017-10-13T14:37:02.458Z,102098.66
2017-10-13T14:39:32.466Z,102093.83
2017-10-13T14:42:01.818Z,102092.78
2017-10-13T14:44:30.708Z,102106.64
2017-10-13T14:46:59.898Z,102110.83
2017-10-13T14:49:29.142Z,102102.05
2017-10-13T14:51:58.670Z,102105.97
2017-10-13T14:54:27.019Z,102102.62
2017-10-13T14:56:56.213Z,102105.33
2017-10-13T14:59:24.828Z,102101.91
2017-10-13T15:01:53.201Z,102107.09
2017-10-13T15:04:21.794Z,102107.28
2017-10-13T15:06:50.225Z,102097.10
2017-10-13T15:09:19.374Z,102102.34
2017-10-13T15:11:48.478Z,102099.38
2017-10-13T15:14:17.922Z,102108.34
2017-10-13T15:16:47.181Z,102112.18
2017-10-13T15:19:17.254Z,102108.19
2017-10-13T15:21:45.963Z,102104.99
2017-10-13T15:24:15.100Z,102109.70
2017-10-13T15:26:44.073Z,102116.60
2017-10-13T15:29:17.930Z,102105.73
2017-10-13T15:31:51.531Z,102110.65
2017-10-13T15:34:26.230Z,102108.37
2017-10-13T15:36:55.343Z,102117.31
2017-10-13T15:39:29.359Z,102117.13
2017-10-13T15:42:04.800Z,102122.31
2017-10-13T15:44:33.453Z,102120.47
2017-10-13T15:47:08.130Z,102122.73
2017-10-13T15:49:42.958Z,102112.35
2017-10-13T15:52:17.511Z,102116.23
2017-10-13T15:54:48.079Z,102108.25
2017-10-13T15:57:16.591Z,102105.78
2017-10-13T15:59:44.959Z,102106.11
2017-10-13T16:02:13.977Z,102109.78
2017-10-13T16:04:43.203Z,102114.83
2017-10-13T16:07:11.805Z,102119.05
2017-10-13T16:09:40.341Z,102118.28
2017-10-13T16:12:08.682Z,102122.91
2017-10-13T16:14:37.697Z,102116.78
2017-10-13T16:17:06.304Z,102117.36
2017-10-13T16:19:35.319Z,102117.16
2017-10-13T16:22:03.714Z,102124.71
2017-10-13T16:24:32.869Z,102120.75
2017-10-13T16:27:01.986Z,102118.21
2017-10-13T16:29:30.677Z,102126.33
2017-10-13T16:31:59.617Z,102127.27
2017-10-13T16:34:28.178Z,102120.81
2017-10-13T16:36:56.774Z,102130.38
2017-10-13T16:39:25.160Z,102131.78
2017-10-13T16:41:53.508Z,102135.06
2017-10-13T16:44:21.846Z,102131.48
2017-10-13T16:46:51.081Z,102132.86
2017-10-13T16:49:20.210Z,102134.02
2017-10-13T16:51:49.466Z,102132.22
2017-10-13T16:54:20.435Z,102132.73
2017-10-13T16:56:49.157Z,102136.17
2017-10-13T16:59:18.321Z,102131.84
2017-10-13T17:01:48.346Z,102136.15
2017-10-13T17:04:17.496Z,102139.16
2017-10-13T17:06:46.782Z,102140.45
2017-10-13T17:09:15.389Z,102141.94
2017-10-13T17:11:43.741Z,102137.43
2017-10-13T17:14:12.086Z,102139.42
2017-10-13T17:16:41.025Z,102133.73
2017-10-13T17:19:10.049Z,102131.09
2017-10-13T17:21:39.375Z,102130.13
2017-10-13T17:24:07.729Z,102125.19
2017-10-13T17:26:37.316Z,102124.43
2017-10-13T17:29:05.730Z,102122.89
2017-10-13T17:31:34.373Z,102125.16
2017-10-13T17:34:03.313Z,102131.06
2017-10-13T17:36:32.441Z,102127.39
2017-10-13T17:39:01.018Z,102129.27
2017-10-13T17:41:29.388Z,102119.18
2017-10-13T17:43:58.776Z,102124.39
2017-10-13T17:46:27.921Z,102131.92
2017-10-13T17:48:56.308Z,102137.73
2017-10-13T17:51:24.707Z,102141.23
2017-10-13T17:53:53.199Z,102139.64
2017-10-13T17:56:22.451Z,102136.88
2017-10-13T17:58:50.804Z,102145.37
2017-10-13T18:01:19.836Z,102153.31
2017-10-13T18:03:49.053Z,102150.94
2017-10-13T18:06:17.502Z,102151.09
2017-10-13T18:08:46.674Z,102152.20
2017-10-13T18:11:15.828Z,102159.56
2017-10-13T18:13:45.067Z,102159.48
2017-10-13T18:16:14.210Z,102158.44
2017-10-13T18:18:42.550Z,102164.73
2017-10-13T18:21:10.893Z,102155.05
2017-10-13T18:23:39.416Z,102162.94
2017-10-13T18:26:08.089Z,102156.97
2017-10-13T18:28:37.191Z,102153.52
2017-10-13T18:31:06.341Z,102154.91
2017-10-13T18:33:34.740Z,102148.58
2017-10-13T18:36:03.752Z,102152.98
2017-10-13T18:38:33.624Z,102148.94
2017-10-13T18:41:02.846Z,102152.27
2017-10-13T18:43:31.957Z,102150.67
2017-10-13T18:46:01.229Z,102145.96
2017-10-13T18:48:29.586Z,102141.77
2017-10-13T18:50:58.719Z,102139.72
2017-10-13T18:53:28.546Z,102138.69
2017-10-13T18:55:56.911Z,102144.84
2017-10-13T18:58:26.972Z,102150.08
2017-10-13T19:00:55.355Z,102150.99
2017-10-13T19:03:24.670Z,102154.70
2017-10-13T19:05:53.099Z,102151.61
2017-10-13T19:08:21.675Z,102150.06
2017-10-13T19:10:50.430Z,102152.73
2017-10-13T19:13:20.185Z,102156.05
2017-10-13T19:15:48.618Z,102153.31
2017-10-13T19:18:17.810Z,102150.41
2017-10-13T19:20:46.607Z,102153.92
2017-10-13T19:23:15.141Z,102152.20
2017-10-13T19:25:43.751Z,102155.28
2017-10-13T19:28:12.092Z,102148.25
2017-10-13T19:30:40.707Z,102150.75
2017-10-13T19:33:09.536Z,102156.39
2017-10-13T19:35:39.006Z,102149.64
2017-10-13T19:38:07.737Z,102151.44
2017-10-13T19:40:37.574Z,102153.14
2017-10-13T19:43:06.961Z,102156.05
2017-10-13T19:45:35.377Z,102147.67
2017-10-13T19:48:03.763Z,102155.27
2017-10-13T19:50:33.803Z,102152.13
2017-10-13T19:53:02.304Z,102150.48
2017-10-13T19:55:30.663Z,102142.84
2017-10-13T19:58:01.114Z,102144.63
2017-10-13T20:00:30.084Z,102141.97
2017-10-13T20:02:58.502Z,102141.34
2017-10-13T20:05:26.865Z,102148.25
2017-10-13T20:07:55.495Z,102141.92
2017-10-13T20:10:26.077Z,102149.28
2017-10-13T20:12:55.248Z,102144.47
2017-10-13T20:15:23.959Z,102149.77
2017-10-13T20:17:52.736Z,102144.69
2017-10-13T20:20:22.861Z,102150.09
2017-10-13T20:22:51.254Z,102140.42
2017-10-13T20:25:19.605Z,102137.28
2017-10-13T20:27:49.336Z,102139.80
2017-10-13T20:30:19.493Z,102140.94
2017-10-13T20:32:48.192Z,102141.47
2017-10-13T20:35:16.626Z,102141.20
2017-10-13T20:37:45.089Z,102141.22
2017-10-13T20:40:15.059Z,102139.13
2017-10-13T20:42:44.000Z,102140.09
2017-10-13T20:45:12.407Z,102131.69
2017-10-13T20:47:40.771Z,102138.99
2017-10-13T20:50:09.973Z,102143.62
2017-10-13T20:52:39.268Z,102145.37
2017-10-13T20:55:08.276Z,102140.84
2017-10-13T20:57:36.689Z,102139.05
2017-10-13T21:00:05.277Z,102136.20
2017-10-13T21:02:34.522Z,102139.41
2017-10-13T21:05:03.103Z,102131.02
2017-10-13T21:07:31.496Z,102127.76
2017-10-13T21:10:00.111Z,102131.95
2017-10-13T21:12:29.171Z,102124.15
2017-10-13T21:14:58.676Z,102132.55
2017-10-13T21:17:27.049Z,102122.35
2017-10-13T21:19:55.397Z,102124.55
2017-10-13T21:22:25.417Z,102130.25
2017-10-13T21:24:56.094Z,102122.63
2017-10-13T21:27:25.342Z,102130.77
2017-10-13T21:29:55.434Z,102124.92
2017-10-13T21:32:24.208Z,102116.46
2017-10-13T21:34:53.429Z,102125.16
2017-10-13T21:37:22.609Z,102119.61
2017-10-13T21:39:51.193Z,102127.67
2017-10-13T21:42:19.651Z,102132.95
2017-10-13T21:44:48.400Z,102135.59
2017-10-13T21:47:17.733Z,102135.14
2017-10-13T21:49:46.179Z,102135.52
2017-10-13T21:52:15.344Z,102133.48
2017-10-13T21:54:43.723Z,102133.69
2017-10-13T21:57:12.064Z,102131.73
2017-10-13T21:59:40.495Z,102130.88
2017-10-13T22:02:08.856Z,102129.74
2017-10-13T22:04:37.205Z,102127.69
2017-10-13T22:07:06.901Z,102133.27
2017-10-13T22:09:35.240Z,102122.49
2017-10-13T22:12:04.044Z,102133.56
2017-10-13T22:14:32.430Z,102130.36
2017-10-13T22:17:02.986Z,102132.64
2017-10-13T22:19:31.961Z,102135.73
2017-10-13T22:22:01.101Z,102128.15
2017-10-13T22:27:03.363Z,102131.17
2017-10-13T22:29:32.470Z,102132.27
2017-10-13T22:32:00.807Z,102129.06
2017-10-13T22:34:30.281Z,102130.92
2017-10-13T22:36:59.295Z,102129.64
2017-10-13T22:39:28.430Z,102132.05
2017-10-13T22:41:57.632Z,102126.92
2017-10-13T22:44:26.047Z,102126.45
2017-10-13T22:46:54.411Z,102133.52
2017-10-13T22:49:23.759Z,102129.48
2017-10-13T22:51:52.093Z,102134.56
2017-10-13T22:54:20.494Z,102131.01
2017-10-13T22:56:48.854Z,102129.87
2017-10-13T22:59:18.397Z,102126.42
2017-10-13T23:01:47.114Z,102131.25
2017-10-13T23:04:17.161Z,102126.56
2017-10-13T23:06:45.743Z,102130.04
2017-10-13T23:09:14.095Z,102133.16
2017-10-13T23:11:42.813Z,102135.20
2017-10-13T23:14:12.608Z,102139.38
2017-10-13T23:16:41.761Z,102144.27
2017-10-13T23:19:10.171Z,102147.58
2017-10-13T23:21:40.326Z,102150.00
2017-10-13T23:24:08.703Z,102147.91
2017-10-13T23:26:38.651Z,102142.52
2017-10-13T23:29:09.140Z,102149.83
2017-10-13T23:31:38.070Z,102154.61
2017-10-13T23:34:06.584Z,102153.33
2017-10-13T23:36:35.704Z,102143.28
2017-10-13T23:39:04.163Z,102149.80
2017-10-13T23:41:33.356Z,102154.42
2017-10-13T23:44:03.067Z,102148.69
2017-10-13T23:46:32.228Z,102152.05
2017-10-13T23:49:01.617Z,102145.17
2017-10-13T23:51:31.523Z,102148.02
2017-10-13T23:54:00.475Z,102146.94
2017-10-13T23:56:29.569Z,102137.81
2017-10-13T23:58:58.463Z,102135.08
